This is the latest recevied weather packets stored in our database for station/object OK4PZ-5. If no packets are shown the sender has not sent any weather packets the latest 10 day(s).
| Time | Temp. | Humidity | Pressure | Rain* | Wind** | Luminosity | Snow |
|---|---|---|---|---|---|---|---|
| 1788246902 | 18.33° C | 70% | 1023 hPa | 0 mm | - | - | - |
| 1788246002 | 18.33° C | 71% | 1023 hPa | 0 mm | - | - | - |
| 1788245102 | 17.78° C | 73% | 1023 hPa | 0 mm | - | - | - |
| 1788244223 | 17.22° C | 74% | 1023 hPa | 0 mm | - | - | - |
| 1788243302 | 16.67° C | 75% | 1023 hPa | 0 mm | - | - | - |
| 1788242403 | 16.11° C | 76% | 1022 hPa | 0 mm | - | - | - |
| 1788241501 | 15.56° C | 79% | 1022 hPa | 0 mm | - | - | - |
| 1788240602 | 15° C | 81% | 1022 hPa | 0 mm | - | - | - |
| 1788239702 | 13.33° C | 85% | 1022 hPa | 0 mm | - | - | - |
| 1788238802 | 12.78° C | 87% | 1022 hPa | 0 mm | - | - | - |
| 1788237902 | 13.33° C | 86% | 1022 hPa | 0 mm | - | - | - |
| 1788237002 | 13.89° C | 83% | 1022 hPa | 0 mm | - | - | - |
| 1788236102 | 14.44° C | 81% | 1022 hPa | 0 mm | - | - | - |
| 1788234302 | 14.44° C | 81% | 1022 hPa | 0 mm | - | - | - |
| 1788233403 | 15° C | 80% | 1022 hPa | 0 mm | - | - | - |
| 1788232502 | 15° C | 79% | 1022 hPa | 0 mm | - | - | - |
| 1788231602 | 14.44° C | 82% | 1022 hPa | 0 mm | - | - | - |
| 1788230702 | 13.33° C | 87% | 1022 hPa | 0 mm | - | - | - |
| 1788229803 | 13.33° C | 86% | 1022 hPa | 0 mm | - | - | - |
| 1788228901 | 14.44° C | 82% | 1022 hPa | 0 mm | - | - | - |
| 1788228002 | 15° C | 79% | 1022 hPa | 0 mm | - | - | - |
| 1788227102 | 15.56° C | 77% | 1022 hPa | 0 mm | - | - | - |
| 1788226202 | 15.56° C | 75% | 1022 hPa | 0 mm | - | - | - |
| 1788225302 | 16.11° C | 74% | 1022 hPa | 0 mm | - | - | - |
| 1788224402 | 16.67° C | 73% | 1021 hPa | 0 mm | - | - | - |
* Rain latest hour (hover to see other rain measurements)
** Current wind speed in m/s (hover to see current wind gust speed)